Terminal Aerodrome Forecast
Issued by NWS

Home | Current Version | Previous Version | Text Only | Print | Product List | Glossary On
Versions: 1 2 3 4 5 6 7 8 9 10 11 12 13 14
000
FTUS46 KMTR 301737
TAFOAK
TAF
KOAK 301737Z 3018/3124 27010KT P6SM FEW010 BKN250
     FM302100 27014KT P6SM SKC
     FM310300 28012KT P6SM FEW020
     FM310700 28007KT P6SM BKN015
     FM311000 26005KT P6SM OVC012
     FM311900 23005KT P6SM SCT020=

USA.gov is the U.S. government's official web portal to all federal, state and local government web resources and services.